createdAt,value
2023-04-28T00:12:52.510Z,98.40
2023-04-28T00:15:22.691Z,99.80
2023-04-28T00:17:52.400Z,99.50
2023-04-28T00:20:22.195Z,99.10
2023-04-28T00:22:52.286Z,98.70
2023-04-28T00:25:21.850Z,98.40
2023-04-28T00:27:51.852Z,98.20
2023-04-28T00:30:21.517Z,97.80
2023-04-28T00:32:51.138Z,97.50
2023-04-28T00:35:20.835Z,97.30
2023-04-28T00:37:51.207Z,96.90
2023-04-28T00:40:20.748Z,96.40
2023-04-28T00:42:50.543Z,96.10
2023-04-28T00:45:20.163Z,95.70
2023-04-28T00:47:51.199Z,95.40
2023-04-28T00:50:20.941Z,95.00
2023-04-28T00:52:50.957Z,94.80
2023-04-28T00:55:22.806Z,94.70
2023-04-28T00:57:53.523Z,94.50
2023-04-28T01:00:23.181Z,94.20
2023-04-28T01:02:54.447Z,94.00
2023-04-28T01:05:25.115Z,93.70
2023-04-28T01:07:55.823Z,93.50
2023-04-28T01:10:25.450Z,93.30
2023-04-28T01:12:55.006Z,93.00
2023-04-28T01:15:24.767Z,92.60
2023-04-28T01:17:54.350Z,92.40
2023-04-28T01:20:24.166Z,92.20
2023-04-28T01:22:53.782Z,92.00
2023-04-28T01:25:23.490Z,91.80
2023-04-28T01:27:54.397Z,91.50
2023-04-28T01:30:24.052Z,91.30
2023-04-28T01:32:53.830Z,91.00
2023-04-28T01:35:23.615Z,90.80
2023-04-28T01:37:54.297Z,90.60
2023-04-28T01:40:23.901Z,90.40
2023-04-28T01:42:53.754Z,90.20
2023-04-28T01:45:23.451Z,89.60
2023-04-28T01:47:53.626Z,88.50
2023-04-28T01:50:23.222Z,87.70
2023-04-28T01:52:52.937Z,86.90
2023-04-28T01:55:23.197Z,86.20
2023-04-28T01:57:53.025Z,85.50
2023-04-28T02:00:22.940Z,84.90
2023-04-28T02:02:53.021Z,84.40
2023-04-28T02:05:22.817Z,83.50
2023-04-28T02:07:52.594Z,82.70
2023-04-28T02:10:22.437Z,81.90
2023-04-28T02:12:52.103Z,81.50
2023-04-28T02:15:21.675Z,80.40
2023-04-28T02:17:51.405Z,80.50
2023-04-28T02:20:21.136Z,79.90
2023-04-28T02:22:50.703Z,79.60
2023-04-28T02:25:20.326Z,79.10
2023-04-28T02:27:50.074Z,78.40
2023-04-28T02:30:19.688Z,77.90
2023-04-28T02:32:50.192Z,77.30
2023-04-28T02:35:20.026Z,77.00
2023-04-28T02:37:49.646Z,76.50
2023-04-28T02:40:19.413Z,76.40
2023-04-28T02:42:48.932Z,76.00
2023-04-28T02:45:18.508Z,75.70
2023-04-28T02:47:48.218Z,75.10
2023-04-28T02:50:17.837Z,74.90
2023-04-28T02:52:49.094Z,74.30
2023-04-28T02:55:25.507Z,74.10
2023-04-28T02:57:55.023Z,74.10
2023-04-28T03:00:24.608Z,72.70
2023-04-28T03:02:54.278Z,70.10
2023-04-28T03:05:23.879Z,68.10
2023-04-28T03:07:54.187Z,66.30
2023-04-28T03:10:23.796Z,67.00
2023-04-28T03:12:53.368Z,67.10
2023-04-28T03:15:23.114Z,67.50
2023-04-28T03:17:52.878Z,67.40
2023-04-28T03:20:22.749Z,67.60
2023-04-28T03:22:52.447Z,67.40
2023-04-28T03:25:22.051Z,66.80
2023-04-28T03:27:51.711Z,66.90
2023-04-28T03:30:21.355Z,66.80
2023-04-28T03:32:50.991Z,65.70
2023-04-28T03:35:20.738Z,65.90
2023-04-28T03:37:51.006Z,66.00
2023-04-28T03:40:20.858Z,65.80
2023-04-28T03:42:50.560Z,65.70
2023-04-28T03:45:20.210Z,65.40
2023-04-28T03:47:49.900Z,64.10
2023-04-28T03:50:20.464Z,63.90
2023-04-28T03:52:50.090Z,63.50
2023-04-28T03:55:19.694Z,63.60
2023-04-28T03:57:49.404Z,62.10
2023-04-28T04:00:19.329Z,61.60
2023-04-28T04:02:49.087Z,61.10
2023-04-28T04:05:18.861Z,60.70
2023-04-28T04:07:48.480Z,60.50
2023-04-28T04:10:18.831Z,60.40
2023-04-28T04:12:48.440Z,60.00
2023-04-28T04:15:18.194Z,58.60
2023-04-28T04:17:48.019Z,57.70
2023-04-28T04:20:18.349Z,57.70
2023-04-28T04:22:47.965Z,57.80
2023-04-28T04:25:17.598Z,57.80
2023-04-28T04:27:47.116Z,57.00
2023-04-28T04:30:16.798Z,56.80
2023-04-28T04:32:46.376Z,56.20
2023-04-28T04:35:16.189Z,56.90
2023-04-28T04:37:45.801Z,56.60
2023-04-28T04:40:15.546Z,56.70
2023-04-28T04:42:45.597Z,56.50
2023-04-28T04:45:15.265Z,55.80
2023-04-28T04:47:45.518Z,54.80
2023-04-28T04:50:15.533Z,55.30
2023-04-28T04:52:45.092Z,54.60
2023-04-28T04:55:14.765Z,54.60
2023-04-28T04:57:44.426Z,54.60
2023-04-28T05:00:14.900Z,53.60
2023-04-28T05:02:44.763Z,53.80
2023-04-28T05:05:21.166Z,53.30
2023-04-28T05:07:51.360Z,53.50
2023-04-28T05:10:21.053Z,51.40
2023-04-28T05:12:50.841Z,51.70
2023-04-28T05:15:20.491Z,52.10
2023-04-28T05:17:50.213Z,52.40
2023-04-28T05:20:20.074Z,52.60
2023-04-28T05:22:49.621Z,52.50
2023-04-28T05:25:19.312Z,52.00
2023-04-28T05:27:49.237Z,49.70
2023-04-28T05:30:18.861Z,49.70
2023-04-28T05:32:48.505Z,50.30
2023-04-28T05:35:18.218Z,50.90
2023-04-28T05:37:47.912Z,50.90
2023-04-28T05:40:17.505Z,51.10
2023-04-28T05:42:47.414Z,50.60
2023-04-28T05:45:17.088Z,50.20
2023-04-28T05:47:50.091Z,50.30
2023-04-28T05:50:19.759Z,49.70
2023-04-28T05:52:49.387Z,50.10
2023-04-28T05:55:19.096Z,50.30
2023-04-28T05:57:52.805Z,50.30
2023-04-28T06:00:23.884Z,49.80
2023-04-28T06:02:53.661Z,50.40
2023-04-28T06:05:25.139Z,49.80
2023-04-28T06:07:55.752Z,49.70
2023-04-28T06:10:27.891Z,49.70
2023-04-28T06:12:58.157Z,49.70
2023-04-28T06:15:27.830Z,49.80
2023-04-28T06:17:57.971Z,49.80
2023-04-28T06:20:27.928Z,49.70
2023-04-28T06:22:57.573Z,48.40
2023-04-28T06:25:27.492Z,49.10
2023-04-28T06:27:57.258Z,49.00
2023-04-28T06:30:27.277Z,49.10
2023-04-28T06:32:59.440Z,49.10
2023-04-28T06:35:29.274Z,48.80
2023-04-28T06:37:59.374Z,48.80
2023-04-28T06:40:28.984Z,48.80
2023-04-28T06:42:58.982Z,49.00
2023-04-28T06:45:28.827Z,47.80
2023-04-28T06:47:58.643Z,47.10
2023-04-28T06:50:28.518Z,47.20
2023-04-28T06:52:58.253Z,47.20
2023-04-28T06:55:28.806Z,47.00
2023-04-28T06:57:58.540Z,47.20
2023-04-28T07:00:28.481Z,47.40
2023-04-28T07:02:58.668Z,47.40
2023-04-28T07:05:29.447Z,47.00
2023-04-28T07:07:59.217Z,47.10
2023-04-28T07:10:29.026Z,47.10
2023-04-28T07:12:58.804Z,47.00
2023-04-28T07:15:28.690Z,46.10
2023-04-28T07:17:58.500Z,46.60
2023-04-28T07:20:31.375Z,46.50
2023-04-28T07:23:01.039Z,46.80
2023-04-28T07:25:30.974Z,46.40
2023-04-28T07:28:02.113Z,46.40
2023-04-28T07:30:31.976Z,47.10
2023-04-28T07:33:02.019Z,46.60
2023-04-28T07:35:31.730Z,46.40
2023-04-28T07:38:01.513Z,46.40
2023-04-28T07:40:31.444Z,45.80
2023-04-28T07:43:01.148Z,45.50
2023-04-28T07:45:31.090Z,45.50
2023-04-28T07:48:00.963Z,45.60
2023-04-28T07:50:30.944Z,45.50
2023-04-28T07:53:01.400Z,45.60
2023-04-28T07:55:31.750Z,45.60
2023-04-28T07:58:01.648Z,45.30
2023-04-28T08:00:31.332Z,45.20
2023-04-28T08:03:01.196Z,45.30
2023-04-28T08:05:31.260Z,45.30
2023-04-28T08:08:02.059Z,45.10
2023-04-28T08:10:31.968Z,45.40
2023-04-28T08:13:01.662Z,45.30
2023-04-28T08:15:31.517Z,45.30
2023-04-28T08:18:01.598Z,45.40
2023-04-28T08:20:31.885Z,45.20
2023-04-28T08:23:02.583Z,45.20
2023-04-28T08:25:32.378Z,45.20
2023-04-28T08:28:02.158Z,44.90
2023-04-28T08:30:32.157Z,44.70
2023-04-28T08:33:01.722Z,44.90
2023-04-28T08:35:32.650Z,44.70
2023-04-28T08:38:02.277Z,44.50
2023-04-28T08:40:33.215Z,44.60
2023-04-28T08:43:02.990Z,44.90
2023-04-28T08:45:33.672Z,44.80
2023-04-28T08:48:06.482Z,44.80
2023-04-28T08:50:37.196Z,44.80
2023-04-28T08:53:09.108Z,44.80
2023-04-28T08:55:39.210Z,44.60
2023-04-28T08:58:10.047Z,44.50
2023-04-28T09:00:40.148Z,44.40
2023-04-28T09:03:10.725Z,44.40
2023-04-28T09:05:40.619Z,44.60
2023-04-28T09:08:10.293Z,44.50
2023-04-28T09:10:40.127Z,44.60
2023-04-28T09:13:10.025Z,44.10
2023-04-28T09:15:44.458Z,44.20
2023-04-28T09:18:17.375Z,44.00
2023-04-28T09:20:47.399Z,43.60
2023-04-28T09:23:22.743Z,43.60
2023-04-28T09:26:12.708Z,43.70
2023-04-28T09:28:42.391Z,43.70
2023-04-28T09:31:31.580Z,44.10
2023-04-28T09:34:02.359Z,44.10
2023-04-28T09:36:32.929Z,44.20
2023-04-28T09:39:03.408Z,44.20
2023-04-28T09:41:52.627Z,44.10
2023-04-28T09:44:23.535Z,41.90
2023-04-28T09:46:53.502Z,42.50
2023-04-28T09:49:23.442Z,41.30
2023-04-28T09:51:53.243Z,41.40
2023-04-28T09:54:25.197Z,41.60
2023-04-28T09:56:55.507Z,41.70
2023-04-28T09:59:25.300Z,40.00
2023-04-28T10:01:55.308Z,40.70
2023-04-28T10:04:25.409Z,41.30
2023-04-28T10:06:55.358Z,41.70
2023-04-28T10:09:28.361Z,42.10
2023-04-28T10:11:58.047Z,42.60
2023-04-28T10:14:28.325Z,42.60
2023-04-28T10:17:01.315Z,43.10
2023-04-28T10:19:30.938Z,43.30
2023-04-28T10:22:39.786Z,43.20
2023-04-28T10:25:32.133Z,42.70
2023-04-28T10:28:03.178Z,42.80
2023-04-28T10:30:32.847Z,43.00
2023-04-28T10:33:27.198Z,43.10
2023-04-28T10:35:57.286Z,42.90
2023-04-28T10:38:27.155Z,43.00
2023-04-28T10:41:04.163Z,43.20
2023-04-28T10:43:39.894Z,43.40
2023-04-28T10:46:11.477Z,43.40
2023-04-28T10:48:55.960Z,43.40
2023-04-28T10:51:29.873Z,43.50
2023-04-28T10:54:09.943Z,43.60
2023-04-28T10:56:41.862Z,44.20
2023-04-28T10:59:31.879Z,44.70
2023-04-28T11:02:45.064Z,45.30
2023-04-28T11:05:15.811Z,45.10
2023-04-28T11:08:24.716Z,45.40
2023-04-28T11:11:16.309Z,45.60
2023-04-28T11:13:48.754Z,45.90
2023-04-28T11:16:23.707Z,46.10
2023-04-28T11:19:07.682Z,46.00
2023-04-28T11:21:37.555Z,46.00
2023-04-28T11:24:12.889Z,45.90
2023-04-28T11:26:43.947Z,46.10
2023-04-28T11:29:15.907Z,46.10
2023-04-28T11:31:54.596Z,46.20
2023-04-28T11:34:25.440Z,46.30
2023-04-28T11:36:55.158Z,46.30
2023-04-28T11:39:35.461Z,46.20
2023-04-28T11:42:11.852Z,46.30
2023-04-28T11:44:41.683Z,46.20
2023-04-28T11:47:11.307Z,46.10
2023-04-28T11:49:48.650Z,46.10
2023-04-28T11:52:18.165Z,46.30
2023-04-28T11:54:47.804Z,46.60
2023-04-28T11:57:22.018Z,46.60
2023-04-28T11:59:52.325Z,47.00
2023-04-28T12:02:30.763Z,47.00
2023-04-28T12:05:09.213Z,47.20
2023-04-28T12:07:46.864Z,47.30
2023-04-28T12:10:18.303Z,47.60
2023-04-28T12:12:52.572Z,47.60
2023-04-28T12:15:23.821Z,47.80
2023-04-28T12:17:53.712Z,48.00
2023-04-28T12:20:44.307Z,48.00
2023-04-28T12:23:14.079Z,48.10
2023-04-28T12:25:48.950Z,48.30
2023-04-28T12:28:18.756Z,48.30
2023-04-28T12:30:48.565Z,48.40
2023-04-28T12:33:41.198Z,48.60
2023-04-28T12:36:10.762Z,48.70
2023-04-28T12:38:50.900Z,48.90
2023-04-28T12:41:20.876Z,49.10
2023-04-28T12:43:50.573Z,49.30
2023-04-28T12:46:20.211Z,49.40
2023-04-28T12:48:50.227Z,49.60
2023-04-28T12:51:19.885Z,49.70
2023-04-28T12:53:49.665Z,49.90
2023-04-28T12:56:19.349Z,50.20
2023-04-28T12:58:49.070Z,50.50
2023-04-28T13:01:18.885Z,50.80
2023-04-28T13:03:49.973Z,51.00
2023-04-28T13:06:19.684Z,51.30
2023-04-28T13:08:49.508Z,51.40
2023-04-28T13:11:22.813Z,51.50
2023-04-28T13:13:52.966Z,51.60
2023-04-28T13:16:22.996Z,51.70
2023-04-28T13:18:53.460Z,51.80
2023-04-28T13:21:23.109Z,52.20
2023-04-28T13:23:52.944Z,52.40
2023-04-28T13:26:25.950Z,52.50
2023-04-28T13:28:56.273Z,52.60
2023-04-28T13:31:25.825Z,52.80
2023-04-28T13:33:58.014Z,53.00
2023-04-28T13:36:28.610Z,53.10
2023-04-28T13:38:59.815Z,53.20
2023-04-28T13:41:30.902Z,53.10
2023-04-28T13:44:00.576Z,53.10
2023-04-28T13:46:30.353Z,53.10
2023-04-28T13:49:00.270Z,53.00
2023-04-28T13:51:30.432Z,53.10
2023-04-28T13:54:00.049Z,53.10
2023-04-28T13:56:29.816Z,53.20
2023-04-28T13:58:59.545Z,53.40
2023-04-28T14:01:29.272Z,53.50
2023-04-28T14:03:59.143Z,53.70
2023-04-28T14:06:29.840Z,54.00
2023-04-28T14:09:00.173Z,54.10
2023-04-28T14:11:29.828Z,54.00
2023-04-28T14:13:59.559Z,54.00
2023-04-28T14:16:29.430Z,54.20
2023-04-28T14:19:00.249Z,54.20
2023-04-28T14:21:30.033Z,54.40
2023-04-28T14:23:59.992Z,54.30
2023-04-28T14:26:30.191Z,54.50
2023-04-28T14:29:02.220Z,54.60
2023-04-28T14:31:31.899Z,54.70
2023-04-28T14:34:01.485Z,54.60
2023-04-28T14:36:31.129Z,54.90
2023-04-28T14:39:01.022Z,55.00
2023-04-28T14:41:30.821Z,55.10
2023-04-28T14:44:00.494Z,55.40
2023-04-28T14:46:30.324Z,55.80
2023-04-28T14:49:00.261Z,56.10
2023-04-28T14:51:29.883Z,56.50
2023-04-28T14:54:00.198Z,56.50
2023-04-28T14:56:30.460Z,56.70
2023-04-28T14:59:01.292Z,57.20
2023-04-28T15:01:31.682Z,57.20
2023-04-28T15:04:01.577Z,57.20
2023-04-28T15:06:31.524Z,57.30
2023-04-28T15:09:01.091Z,57.70
2023-04-28T15:11:31.089Z,57.90
2023-04-28T15:14:00.609Z,58.00
2023-04-28T15:16:30.442Z,58.10
2023-04-28T15:19:00.655Z,58.30
2023-04-28T15:21:31.090Z,58.60
2023-04-28T15:24:02.165Z,58.90
2023-04-28T15:26:31.675Z,59.10
2023-04-28T15:29:02.494Z,59.20
2023-04-28T15:31:32.056Z,59.50
2023-04-28T15:34:05.000Z,59.80
2023-04-28T15:36:38.629Z,59.70
2023-04-28T15:39:09.146Z,59.80
2023-04-28T15:41:38.884Z,59.70
2023-04-28T15:44:09.014Z,59.60
2023-04-28T15:46:39.716Z,59.70
2023-04-28T15:49:10.168Z,59.70
2023-04-28T15:51:40.060Z,59.80
2023-04-28T15:54:09.662Z,59.90
2023-04-28T15:56:39.271Z,60.00
2023-04-28T15:59:10.074Z,59.90
2023-04-28T16:01:39.854Z,59.90
2023-04-28T16:04:09.655Z,60.00
2023-04-28T16:06:39.415Z,60.30
2023-04-28T16:09:08.986Z,60.30
2023-04-28T16:11:40.168Z,61.60
2023-04-28T16:14:10.322Z,61.20
2023-04-28T16:16:39.968Z,61.30
2023-04-28T16:19:10.141Z,61.90
2023-04-28T16:21:39.698Z,61.30
2023-04-28T16:24:09.844Z,61.10
2023-04-28T16:26:39.584Z,61.20
2023-04-28T16:29:10.760Z,61.20
2023-04-28T16:31:41.378Z,61.50
2023-04-28T16:34:11.038Z,61.90
2023-04-28T16:36:41.889Z,62.00
2023-04-28T16:39:11.702Z,62.20
2023-04-28T16:41:41.227Z,62.60
2023-04-28T16:44:11.048Z,63.00
2023-04-28T16:46:41.361Z,63.10
2023-04-28T16:49:11.331Z,63.00
2023-04-28T16:51:41.138Z,63.30
2023-04-28T16:54:10.823Z,63.40
2023-04-28T16:56:41.334Z,63.40
2023-04-28T16:59:10.945Z,63.40
2023-04-28T17:01:40.596Z,63.30
2023-04-28T17:04:10.577Z,63.70
2023-04-28T17:06:40.492Z,63.90
2023-04-28T17:09:11.381Z,64.70
2023-04-28T17:11:41.095Z,64.20
2023-04-28T17:14:10.863Z,64.20
2023-04-28T17:16:41.205Z,64.20
2023-04-28T17:19:11.126Z,64.40
2023-04-28T17:21:40.814Z,64.40
2023-04-28T17:24:10.675Z,64.50
2023-04-28T17:26:40.280Z,64.50
2023-04-28T17:29:10.034Z,64.40
2023-04-28T17:31:39.969Z,64.60
2023-04-28T17:34:09.684Z,64.60
2023-04-28T17:36:39.376Z,64.70
2023-04-28T17:39:09.096Z,64.80
2023-04-28T17:41:38.954Z,64.80
2023-04-28T17:44:08.545Z,65.00
2023-04-28T17:46:39.408Z,64.80
2023-04-28T17:49:09.059Z,64.80
2023-04-28T17:51:39.659Z,64.80
2023-04-28T17:54:11.130Z,64.90
2023-04-28T17:56:41.277Z,65.00
2023-04-28T17:59:11.742Z,65.20
2023-04-28T18:01:41.374Z,65.60
2023-04-28T18:04:11.338Z,66.00
2023-04-28T18:06:41.066Z,66.10
2023-04-28T18:09:10.626Z,67.10
2023-04-28T18:11:40.463Z,66.20
2023-04-28T18:14:10.138Z,66.10
2023-04-28T18:16:39.821Z,66.10
2023-04-28T18:19:09.961Z,66.50
2023-04-28T18:21:39.947Z,66.60
2023-04-28T18:24:09.602Z,66.60
2023-04-28T18:26:39.219Z,66.50
2023-04-28T18:29:08.815Z,66.50
2023-04-28T18:31:38.527Z,66.90
2023-04-28T18:34:08.426Z,66.60
2023-04-28T18:36:38.018Z,66.50
2023-04-28T18:39:08.705Z,66.70
2023-04-28T18:41:39.445Z,66.80
2023-04-28T18:44:09.093Z,66.80
2023-04-28T18:46:39.200Z,67.00
2023-04-28T18:49:09.196Z,67.10
2023-04-28T18:51:40.250Z,67.30
2023-04-28T18:54:10.075Z,67.40
2023-04-28T18:56:39.662Z,68.20
2023-04-28T18:59:10.570Z,68.70
2023-04-28T19:01:41.380Z,68.80
2023-04-28T19:04:11.537Z,68.60
2023-04-28T19:06:41.328Z,68.20
2023-04-28T19:09:10.926Z,68.00
2023-04-28T19:11:40.553Z,67.80
2023-04-28T19:14:10.214Z,67.70
2023-04-28T19:16:39.894Z,67.70
2023-04-28T19:19:09.849Z,67.70
2023-04-28T19:21:46.301Z,68.60
2023-04-28T19:24:15.955Z,68.30
2023-04-28T19:26:45.622Z,68.50
2023-04-28T19:29:18.723Z,68.80
2023-04-28T19:31:48.387Z,68.80
2023-04-28T19:34:18.001Z,68.80
2023-04-28T19:36:47.601Z,69.20
2023-04-28T19:39:17.162Z,69.30
2023-04-28T19:41:48.597Z,69.20
2023-04-28T19:44:18.422Z,69.70
2023-04-28T19:46:48.010Z,69.90
2023-04-28T19:49:18.863Z,70.10
2023-04-28T19:51:48.361Z,70.40
2023-04-28T19:54:17.898Z,70.20
2023-04-28T19:56:47.374Z,70.40
2023-04-28T19:59:17.559Z,70.40
2023-04-28T20:01:47.399Z,70.50
2023-04-28T20:04:17.293Z,70.50
2023-04-28T20:06:47.123Z,70.70
2023-04-28T20:09:16.744Z,70.80
2023-04-28T20:11:46.330Z,70.70
2023-04-28T20:14:15.877Z,70.60
2023-04-28T20:16:46.119Z,71.10
2023-04-28T20:19:16.082Z,71.10
2023-04-28T20:21:46.008Z,71.30
2023-04-28T20:24:15.635Z,71.50
2023-04-28T20:26:45.328Z,71.60
2023-04-28T20:29:14.805Z,71.80
2023-04-28T20:31:44.620Z,71.90
2023-04-28T20:34:16.042Z,71.90
2023-04-28T20:36:45.855Z,72.10
2023-04-28T20:39:15.464Z,72.40
2023-04-28T20:41:45.279Z,72.40
2023-04-28T20:44:14.850Z,72.60
2023-04-28T20:46:44.939Z,72.90
2023-04-28T20:49:15.071Z,72.80
2023-04-28T20:51:49.506Z,72.80
2023-04-28T20:54:19.211Z,73.30
2023-04-28T20:56:48.831Z,73.30
2023-04-28T20:59:18.461Z,73.20
2023-04-28T21:01:48.072Z,72.90
2023-04-28T21:04:17.823Z,72.90
2023-04-28T21:06:50.617Z,72.70
2023-04-28T21:09:20.585Z,72.60
2023-04-28T21:11:50.326Z,72.60
2023-04-28T21:14:19.963Z,72.60
2023-04-28T21:16:49.654Z,72.60
2023-04-28T21:19:20.107Z,72.70
2023-04-28T21:21:49.662Z,72.60
2023-04-28T21:24:19.274Z,72.60
2023-04-28T21:26:49.201Z,72.60
2023-04-28T21:29:20.127Z,72.30
2023-04-28T21:31:49.826Z,72.40
2023-04-28T21:34:19.493Z,72.40
2023-04-28T21:36:49.282Z,72.60
2023-04-28T21:39:19.146Z,72.50
2023-04-28T21:41:48.788Z,72.60
2023-04-28T21:44:18.425Z,72.60
2023-04-28T21:46:48.766Z,72.80
2023-04-28T21:49:18.302Z,72.60
2023-04-28T21:51:47.806Z,72.50
2023-04-28T21:54:17.832Z,72.50
2023-04-28T21:56:48.153Z,72.60
2023-04-28T21:59:19.642Z,72.50
2023-04-28T22:01:49.723Z,72.40
2023-04-28T22:04:20.101Z,72.50
2023-04-28T22:06:49.931Z,72.50
2023-04-28T22:09:19.513Z,72.50
2023-04-28T22:11:49.185Z,72.40
2023-04-28T22:14:35.598Z,72.50
2023-04-28T22:17:08.313Z,72.50
2023-04-28T22:19:37.915Z,72.50
2023-04-28T22:22:08.599Z,72.80
2023-04-28T22:24:38.691Z,72.70
2023-04-28T22:27:08.356Z,72.90
2023-04-28T22:29:37.909Z,73.20
2023-04-28T22:32:09.985Z,73.70
2023-04-28T22:34:39.618Z,73.50
2023-04-28T22:37:09.141Z,73.50
2023-04-28T22:39:39.260Z,73.70
2023-04-28T22:42:09.099Z,73.70
2023-04-28T22:44:39.202Z,73.80
2023-04-28T22:47:08.756Z,74.20
2023-04-28T22:49:38.376Z,74.00
2023-04-28T22:52:08.220Z,74.20
2023-04-28T22:54:40.557Z,74.00
2023-04-28T22:57:10.693Z,74.00
2023-04-28T22:59:40.197Z,74.30
2023-04-28T23:02:10.538Z,74.10
2023-04-28T23:04:40.244Z,74.10
2023-04-28T23:07:10.157Z,74.10
2023-04-28T23:09:39.734Z,74.40
2023-04-28T23:12:09.769Z,74.30
2023-04-28T23:14:39.706Z,74.50
2023-04-28T23:17:09.212Z,74.60
2023-04-28T23:19:40.614Z,74.80
2023-04-28T23:22:10.668Z,74.80
2023-04-28T23:24:41.559Z,74.60
2023-04-28T23:27:11.144Z,74.50
2023-04-28T23:29:40.697Z,75.50
2023-04-28T23:32:11.341Z,74.90
2023-04-28T23:34:43.312Z,75.00
2023-04-28T23:37:12.888Z,75.20
2023-04-28T23:39:42.494Z,75.20
2023-04-28T23:42:12.101Z,75.00
2023-04-28T23:44:41.665Z,74.90
2023-04-28T23:47:11.108Z,74.90
2023-04-28T23:49:41.335Z,75.20
2023-04-28T23:52:10.816Z,75.40
2023-04-28T23:54:40.643Z,75.20
2023-04-28T23:57:10.204Z,75.10
2023-04-28T23:59:39.756Z,75.10
